Main page
METAR-TAF:

METAR-TAF

Airports :

Salt Lake City, Utah, United States

Salt Lake City International Airport

latitude: 40-46-41N, longitude: 111-58-10W, elevation: 1288 m

Current weather observation

The report was made 1 hour and 2 minutes ago, at 08:54 UTC
Wind 7 kt from the Southeast
Temperature 8°C
Humidity 42%
Pressure 1026 hPa
Visibility: 16.1 km
Few clouds at a height of 11000 ft

METAR: KSLC 220854Z 13007KT 10SM FEW110 08/M04 A3031 RMK AO2 SLP248 T00781044 58004 $

Time: 03:56 (09:56 UTC)

Forecast

The report was made 1 hour and 0 minutes ago, at 08:56 UTC
Forecast valid from 22 at 09 UTC to 23 at 12 UTC
Wind 6 kt from the Southeast
Visibility: 10 km
Scattered clouds at a height of 8000 ft
From 22 at 2000 UTC
Wind 7 kt from the West/Northwest
Visibility: 10 km
Scattered clouds at a height of 8000 ft
From 23 at 0300 UTC
Wind 7 kt from the South/Southeast
Visibility: 10 km
Broken clouds at a height of 8000 ft

TAF: KSLC 220856Z 2209/2312 14006KT P6SM SCT080 FM222000 30007KT P6SM SCT080 FM230300 16007KT P6SM BKN080

Weather observations and forecasts of more than 4000 airports (METAR and TAF reports).

The available stations are represented by yellow and red dots on the map.

Hover mouse over dot to see the name of the station.

Then click to see weather observations and forecasts.

To change the map : click on the green buttons with a black cross to zoom in, on the green button with a dash to zoom out, or on the green arrows for adjacent maps.


METAR-TAF: